Time;durP1;ratioP1;P1;durP2;ratioP2;P2;SDS_P1;SDS_P2;PMS_P1;PMS_P2;Temp;Humidity;BMP_temperature;BMP_pressure;BME280_temperature;BME280_humidity;BME280_pressure;Samples;Min_cycle;Max_cycle;Signal;HPM_P1;HPM_P2
2023/09/12 04:44:53;;;;;;;;;;;;;;;25.08;55.39;96588.34;4248836;27;10453;-68
2023/09/12 04:46:56;;;;;;;;;;;;;;;25.34;54.82;96581.47;4249044;27;5650;-68
2023/09/12 04:49:00;;;;;;;;;;;;;;;25.53;54.48;96574.16;4248388;27;5706;-68
2023/09/12 04:51:03;;;;;;;;;;;;;;;25.70;53.67;96572.84;4248663;27;5717;-69
2023/09/12 04:53:07;;;;;;;;;;;;;;;25.84;53.38;96579.13;4252908;27;5627;-68
2023/09/12 04:55:11;;;;;;;;;;;;;;;25.96;52.91;96582.19;4252972;27;5654;-68
2023/09/12 04:57:14;;;;;;;;;;;;;;;26.03;52.60;96579.06;4241662;27;5605;-69
2023/09/12 04:59:18;;;;;;;;;;;;;;;26.10;52.46;96591.13;4255025;27;5694;-68
2023/09/12 05:01:25;;;;;;;;;;;;;;;26.17;52.03;96595.38;4248239;27;5641;-68
2023/09/12 05:03:29;;;;;;;;;;;;;;;26.21;51.79;96599.09;4247278;27;5654;-71
2023/09/12 05:05:36;;;;;;;;;;;;;;;26.24;51.67;96593.06;4249254;27;5902;-69
2023/09/12 05:07:40;;;;;;;;;;;;;;;26.29;51.43;96595.72;4246501;27;5856;-73
2023/09/12 05:09:43;;;;;;;;;;;;;;;26.31;51.33;96590.78;4254757;27;5596;-70
2023/09/12 05:11:46;;;;;;;;;;;;;;;26.32;51.19;96595.09;4252193;27;5752;-69
2023/09/12 05:13:50;;;;;;;;;;;;;;;26.33;50.82;96594.00;4236545;27;5774;-70
2023/09/12 05:15:56;;;;;;;;;;;;;;;26.35;50.66;96594.50;4234423;27;5706;-68
2023/09/12 05:18:01;;;;;;;;;;;;;;;26.35;50.70;96592.59;4240004;27;5660;-68
2023/09/12 05:20:06;;;;;;;;;;;;;;;26.36;50.43;96596.09;4236170;27;5760;-68
2023/09/12 05:22:10;;;;;;;;;;;;;;;26.34;50.38;96601.03;4246020;27;5694;-68
2023/09/12 05:24:14;;;;;;;;;;;;;;;26.39;50.41;96612.63;4248349;27;5639;-68
2023/09/12 05:26:17;;;;;;;;;;;;;;;26.41;49.88;96623.16;4245153;27;5657;-68
2023/09/12 05:28:20;;;;;;;;;;;;;;;26.39;49.95;96623.47;4252860;27;5627;-68
2023/09/12 05:30:24;;;;;;;;;;;;;;;26.39;49.87;96631.59;4247260;27;5661;-68
2023/09/12 05:32:27;;;;;;;;;;;;;;;26.40;49.65;96630.47;4238231;27;5650;-68
2023/09/12 05:34:32;;;;;;;;;;;;;;;26.40;49.66;96626.97;4240416;27;5737;-68
2023/09/12 05:36:35;;;;;;;;;;;;;;;26.40;49.58;96621.56;4233929;27;5674;-69
2023/09/12 05:38:39;;;;;;;;;;;;;;;26.39;49.38;96622.66;4231813;27;5682;-70
2023/09/12 05:40:43;;;;;;;;;;;;;;;26.40;49.33;96627.78;4237737;27;5677;-70
2023/09/12 05:42:47;;;;;;;;;;;;;;;26.41;49.51;96628.56;4256618;27;5651;-72
2023/09/12 05:44:53;;;;;;;;;;;;;;;26.40;49.42;96632.38;4204916;28;5770;-70
2023/09/12 05:46:56;;;;;;;;;;;;;;;26.41;49.36;96625.88;4194395;28;5728;-72
2023/09/12 05:49:00;;;;;;;;;;;;;;;26.42;49.25;96621.25;4188989;28;5910;-70
2023/09/12 05:51:04;;;;;;;;;;;;;;;26.40;49.54;96622.34;4199677;28;5931;-69
2023/09/12 05:53:09;;;;;;;;;;;;;;;26.42;49.45;96627.47;4198235;28;5787;-73
2023/09/12 05:55:12;;;;;;;;;;;;;;;26.42;49.25;96624.75;4193897;28;5689;-69
2023/09/12 05:57:16;;;;;;;;;;;;;;;26.42;49.53;96623.97;4196243;28;5696;-72
2023/09/12 05:59:19;;;;;;;;;;;;;;;26.45;49.67;96620.63;4201690;28;5958;-71
2023/09/12 06:01:23;;;;;;;;;;;;;;;26.44;49.72;96619.84;4203615;28;5798;-75
2023/09/12 06:03:26;;;;;;;;;;;;;;;26.44;49.73;96617.13;4210620;28;5754;-71
2023/09/12 06:05:30;;;;;;;;;;;;;;;26.45;49.52;96615.22;4219483;28;5674;-71
2023/09/12 06:07:35;;;;;;;;;;;;;;;26.44;49.56;96619.84;4212866;28;5787;-74
2023/09/12 06:09:38;;;;;;;;;;;;;;;26.45;49.62;96621.44;4210084;28;5697;-68
2023/09/12 06:11:41;;;;;;;;;;;;;;;26.44;49.82;96625.25;4202567;28;5775;-72
2023/09/12 06:13:43;;;;;;;;;;;;;;;26.45;49.80;96629.56;4210617;28;5684;-73
2023/09/12 06:15:47;;;;;;;;;;;;;;;26.45;49.60;96631.47;4202701;28;5765;-70
2023/09/12 06:17:50;;;;;;;;;;;;;;;26.43;50.08;96634.50;4210632;28;5658;-73
2023/09/12 06:19:55;;;;;;;;;;;;;;;26.44;49.79;96635.31;4203097;28;5744;-67
2023/09/12 06:21:58;;;;;;;;;;;;;;;26.44;49.93;96625.25;4217527;28;5682;-76
2023/09/12 06:24:14;;;;;;;;;;;;;;;26.44;50.08;96633.41;4210297;28;5866;-70
2023/09/12 06:26:18;;;;;;;;;;;;;;;26.45;50.16;96623.34;4202601;28;5693;-74
2023/09/12 06:28:28;;;;;;;;;;;;;;;26.46;49.92;96633.09;4207004;28;5689;-73
2023/09/12 06:30:32;;;;;;;;;;;;;;;26.45;50.05;96629.56;4219071;28;5670;-70
2023/09/12 06:32:36;;;;;;;;;;;;;;;26.44;50.22;96627.97;4210187;28;5683;-74
2023/09/12 06:34:39;;;;;;;;;;;;;;;26.44;50.00;96636.09;4210254;28;5730;-77
2023/09/12 06:36:44;;;;;;;;;;;;;;;26.44;50.16;96629.88;4211253;28;5692;-71
2023/09/12 06:38:49;;;;;;;;;;;;;;;26.45;50.16;96637.72;4185786;28;5725;-76
2023/09/12 06:40:55;;;;;;;;;;;;;;;26.44;50.18;96633.41;4187053;28;5837;-75
2023/09/12 06:42:58;;;;;;;;;;;;;;;26.48;50.40;96639.81;4211574;28;5713;-72
2023/09/12 06:45:01;;;;;;;;;;;;;;;26.49;50.46;96637.91;4246328;27;5716;-76
2023/09/12 06:47:06;;;;;;;;;;;;;;;26.51;50.18;96641.16;4241833;27;5654;-76
2023/09/12 06:49:08;;;;;;;;;;;;;;;26.50;50.33;96648.44;4238777;27;5616;-73
2023/09/12 06:51:12;;;;;;;;;;;;;;;26.52;50.38;96645.47;4240811;27;5688;-71
2023/09/12 06:53:20;;;;;;;;;;;;;;;26.53;50.24;96645.16;4248878;27;5620;-68
2023/09/12 06:55:23;;;;;;;;;;;;;;;26.55;50.47;96645.66;4238932;27;5777;-75
2023/09/12 06:57:28;;;;;;;;;;;;;;;26.55;50.31;96642.94;4240244;27;5633;-76
2023/09/12 06:59:32;;;;;;;;;;;;;;;26.56;50.24;96649.19;4243812;27;5612;-69
2023/09/12 07:01:35;;;;;;;;;;;;;;;26.55;50.24;96653.78;4245580;27;5761;-73
2023/09/12 07:03:39;;;;;;;;;;;;;;;26.57;50.57;96658.91;4243792;27;5650;-75
2023/09/12 07:05:43;;;;;;;;;;;;;;;26.60;50.53;96656.41;4243267;27;5676;-68
2023/09/12 07:07:46;;;;;;;;;;;;;;;26.60;50.49;96655.59;4252315;27;5640;-70
2023/09/12 07:09:48;;;;;;;;;;;;;;;26.61;50.50;96652.59;4218522;28;7674;-74
2023/09/12 07:11:52;;;;;;;;;;;;;;;26.64;50.37;96652.00;4219796;27;5674;-71
2023/09/12 07:13:56;;;;;;;;;;;;;;;26.67;50.55;96654.09;4243531;27;5829;-71
2023/09/12 07:16:03;;;;;;;;;;;;;;;26.69;50.40;96651.91;4243491;27;6538;-69
2023/09/12 07:18:07;;;;;;;;;;;;;;;26.70;50.41;96655.41;4243777;27;5853;-72
2023/09/12 07:20:12;;;;;;;;;;;;;;;26.73;50.52;96664.84;4252122;27;5608;-69
2023/09/12 07:22:35;;;;;;;;;;;;;;;26.73;50.41;96662.97;4243019;27;5628;-68
2023/09/12 07:25:01;;;;;;;;;;;;;;;26.74;50.32;96669.19;4217637;28;5822;-71
2023/09/12 07:27:24;;;;;;;;;;;;;;;26.73;50.18;96670.28;4218053;28;5769;-66
2023/09/12 07:29:29;;;;;;;;;;;;;;;26.72;50.10;96674.88;4229603;27;5628;-66
2023/09/12 07:31:32;;;;;;;;;;;;;;;26.71;50.33;96673.28;4237016;27;5638;-67
2023/09/12 07:33:36;;;;;;;;;;;;;;;26.71;50.11;96667.84;4243130;27;5653;-70
2023/09/12 07:35:39;;;;;;;;;;;;;;;26.73;50.30;96670.28;4242225;27;5620;-67
2023/09/12 07:37:43;;;;;;;;;;;;;;;26.76;50.30;96669.69;4243812;27;5693;-66
2023/09/12 07:39:46;;;;;;;;;;;;;;;26.75;50.66;96671.59;4243142;27;5824;-66
2023/09/12 07:41:49;;;;;;;;;;;;;;;26.75;50.49;96671.59;4242393;27;5664;-67
2023/09/12 07:43:52;;;;;;;;;;;;;;;26.76;50.23;96681.34;4250328;27;5657;-67
2023/09/12 07:45:57;;;;;;;;;;;;;;;26.76;50.09;96675.13;4241998;27;5658;-67
2023/09/12 07:48:00;;;;;;;;;;;;;;;26.77;50.39;96687.56;4236707;27;5657;-67
2023/09/12 07:50:06;;;;;;;;;;;;;;;26.77;50.10;96688.38;4242926;27;6358;-69
2023/09/12 07:52:09;;;;;;;;;;;;;;;26.79;50.16;96693.50;4243207;27;6098;-68
2023/09/12 07:54:13;;;;;;;;;;;;;;;26.80;49.97;96693.19;4242861;27;5733;-67
2023/09/12 07:56:18;;;;;;;;;;;;;;;26.81;49.97;96694.78;4242896;27;5628;-67
2023/09/12 07:58:21;;;;;;;;;;;;;;;26.81;49.83;96694.00;4251592;27;5842;-67
2023/09/12 08:00:24;;;;;;;;;;;;;;;26.82;49.94;96706.44;4242828;27;6341;-66
2023/09/12 08:02:48;;;;;;;;;;;;;;;26.82;49.74;96701.81;4219250;28;5658;-67
2023/09/12 08:04:53;;;;;;;;;;;;;;;26.84;49.85;96704.22;4235917;27;5647;-66
2023/09/12 08:06:57;;;;;;;;;;;;;;;26.87;49.81;96707.16;4243238;27;5872;-66
2023/09/12 08:09:02;;;;;;;;;;;;;;;26.88;49.91;96710.69;4240785;27;5637;-66
2023/09/12 08:11:06;;;;;;;;;;;;;;;26.90;49.86;96703.06;4245737;27;5217;-67
2023/09/12 08:13:09;;;;;;;;;;;;;;;26.92;49.84;96706.25;4251750;27;5617;-67
2023/09/12 08:15:12;;;;;;;;;;;;;;;26.92;49.89;96717.91;4243261;27;5722;-66
2023/09/12 08:17:16;;;;;;;;;;;;;;;26.93;49.91;96718.72;4247503;27;5645;-66
2023/09/12 08:19:21;;;;;;;;;;;;;;;26.93;49.82;96713.28;4239406;27;5655;-66
2023/09/12 08:21:24;;;;;;;;;;;;;;;26.94;50.07;96714.91;4238028;27;5197;-66
2023/09/12 08:23:27;;;;;;;;;;;;;;;26.93;50.09;96713.28;4243039;27;5665;-66
2023/09/12 08:25:31;;;;;;;;;;;;;;;26.93;50.25;96713.28;4249126;27;6272;-66
2023/09/12 08:27:34;;;;;;;;;;;;;;;26.94;50.01;96721.13;4242823;27;5628;-66
2023/09/12 08:29:38;;;;;;;;;;;;;;;26.95;50.07;96716.50;4244111;27;5752;-66
2023/09/12 08:31:41;;;;;;;;;;;;;;;26.99;50.11;96722.97;4234824;28;5843;-66
2023/09/12 08:33:44;;;;;;;;;;;;;;;27.00;50.04;96727.28;4242558;27;5646;-66
2023/09/12 08:35:50;;;;;;;;;;;;;;;26.98;50.08;96722.16;4251158;27;5619;-66
2023/09/12 08:37:53;;;;;;;;;;;;;;;27.03;49.95;96728.59;4243915;27;5148;-67
2023/09/12 08:39:58;;;;;;;;;;;;;;;27.05;49.96;96729.91;4242442;27;5743;-67
2023/09/12 08:42:02;;;;;;;;;;;;;;;27.06;49.87;96728.00;4242630;27;5708;-67
2023/09/12 08:44:06;;;;;;;;;;;;;;;27.06;49.82;96726.09;4242182;27;5646;-68
2023/09/12 08:46:11;;;;;;;;;;;;;;;27.09;49.94;96732.84;4242438;27;5620;-73
2023/09/12 08:48:15;;;;;;;;;;;;;;;27.09;49.88;96728.22;4251295;27;5620;-75
2023/09/12 08:50:18;;;;;;;;;;;;;;;27.11;49.85;96723.28;4238186;27;5548;-70
2023/09/12 08:52:22;;;;;;;;;;;;;;;27.12;50.12;96724.91;4242406;27;5685;-67
2023/09/12 08:54:25;;;;;;;;;;;;;;;27.13;50.09;96721.09;4242402;27;5657;-66
2023/09/12 08:56:29;;;;;;;;;;;;;;;27.14;50.10;96730.81;4248601;27;5624;-66
2023/09/12 08:58:33;;;;;;;;;;;;;;;27.16;50.16;96731.31;4235944;27;5657;-66
2023/09/12 09:00:37;;;;;;;;;;;;;;;27.16;50.02;96728.59;4249472;27;5715;-67
2023/09/12 09:02:41;;;;;;;;;;;;;;;27.16;49.89;96723.19;4242919;27;6478;-66
2023/09/12 09:04:48;;;;;;;;;;;;;;;27.12;49.67;96716.75;4242067;27;6502;-67
2023/09/12 09:06:57;;;;;;;;;;;;;;;27.06;49.68;96728.81;4234790;27;5735;-66
2023/09/12 09:09:05;;;;;;;;;;;;;;;27.02;49.49;96722.38;4244591;27;5612;-67
2023/09/12 09:11:10;;;;;;;;;;;;;;;27.02;49.41;96730.50;4242345;27;5624;-67
2023/09/12 09:13:14;;;;;;;;;;;;;;;27.02;49.24;96719.66;4242271;27;5616;-67
2023/09/12 09:15:27;;;;;;;;;;;;;;;26.99;48.83;96717.53;4242690;27;5627;-68
2023/09/12 09:17:31;;;;;;;;;;;;;;;26.94;48.62;96725.75;4251133;27;5636;-67
2023/09/12 09:19:42;;;;;;;;;;;;;;;26.93;48.68;96724.13;4235183;27;7682;-67
2023/09/12 09:21:46;;;;;;;;;;;;;;;26.96;48.49;96723.56;4245742;27;5624;-67
2023/09/12 09:23:49;;;;;;;;;;;;;;;26.95;48.48;96720.03;4245324;27;5694;-66
2023/09/12 09:25:54;;;;;;;;;;;;;;;26.96;48.16;96715.44;4245570;27;5664;-66
2023/09/12 09:27:57;;;;;;;;;;;;;;;26.97;48.14;96717.03;4252615;27;5808;-66
2023/09/12 09:30:00;;;;;;;;;;;;;;;26.96;47.82;96713.50;4245474;27;5754;-66
2023/09/12 09:32:17;;;;;;;;;;;;;;;27.01;48.04;96715.31;4239460;27;5629;-66
2023/09/12 09:34:24;;;;;;;;;;;;;;;27.02;47.68;96710.72;4240202;27;5808;-66
2023/09/12 09:36:27;;;;;;;;;;;;;;;27.04;47.79;96708.50;4245422;27;5645;-66
2023/09/12 09:38:31;;;;;;;;;;;;;;;27.05;47.95;96710.91;4245441;27;5637;-66
2023/09/12 09:40:36;;;;;;;;;;;;;;;27.04;48.03;96703.88;4243718;27;5631;-66
2023/09/12 09:42:43;;;;;;;;;;;;;;;27.06;47.76;96706.28;4245178;27;5615;-67
2023/09/12 09:44:48;;;;;;;;;;;;;;;27.06;47.67;96701.66;4236546;27;5636;-67
2023/09/12 09:46:53;;;;;;;;;;;;;;;27.03;47.72;96702.28;4244463;27;6729;-67
2023/09/12 09:48:56;;;;;;;;;;;;;;;27.04;47.75;96703.09;4246523;27;5624;-66
2023/09/12 09:51:04;;;;;;;;;;;;;;;27.05;47.63;96701.97;4253437;27;5624;-67
2023/09/12 09:53:08;;;;;;;;;;;;;;;27.06;47.57;96701.66;4245162;27;5651;-66
2023/09/12 09:55:15;;;;;;;;;;;;;;;27.09;47.59;96700.28;4244780;27;5643;-66
2023/09/12 09:57:20;;;;;;;;;;;;;;;27.10;47.49;96699.97;4245009;27;5636;-67
2023/09/12 09:59:26;;;;;;;;;;;;;;;27.11;47.45;96706.22;4244853;27;6333;-67
2023/09/12 10:01:32;;;;;;;;;;;;;;;27.12;47.24;96697.78;4247425;27;6346;-67
2023/09/12 10:03:38;;;;;;;;;;;;;;;27.13;47.17;96699.38;4244574;27;5630;-67
2023/09/12 10:05:43;;;;;;;;;;;;;;;27.16;47.28;96700.69;4252411;27;5714;-67
2023/09/12 10:07:50;;;;;;;;;;;;;;;27.15;46.88;96699.88;4244929;27;6692;-67
2023/09/12 10:09:54;;;;;;;;;;;;;;;27.15;46.74;96697.16;4237199;27;5698;-68
2023/09/12 10:11:59;;;;;;;;;;;;;;;27.17;46.69;96692.22;4244753;27;5697;-67
2023/09/12 10:14:04;;;;;;;;;;;;;;;27.19;46.59;96690.03;4244700;27;5644;-66
2023/09/12 10:16:09;;;;;;;;;;;;;;;27.21;46.48;96687.81;4244753;27;5649;-67
2023/09/12 10:18:19;;;;;;;;;;;;;;;27.22;46.46;96694.06;4248523;27;5623;-67
2023/09/12 10:20:30;;;;;;;;;;;;;;;27.26;46.53;96695.03;4247498;27;5637;-67
2023/09/12 10:22:39;;;;;;;;;;;;;;;27.28;46.32;96693.63;4236708;28;5724;-67
2023/09/12 10:24:44;;;;;;;;;;;;;;;27.31;46.28;96692.25;4236203;28;5648;-68
2023/09/12 10:26:50;;;;;;;;;;;;;;;27.34;46.05;96693.53;4236348;28;5641;-67
2023/09/12 10:28:55;;;;;;;;;;;;;;;27.35;46.15;96692.44;4244577;27;5644;-67
2023/09/12 10:31:01;;;;;;;;;;;;;;;27.35;46.00;96692.44;4244272;27;5103;-67
2023/09/12 10:33:07;;;;;;;;;;;;;;;27.36;45.75;96685.91;4243107;27;5601;-67
2023/09/12 10:35:12;;;;;;;;;;;;;;;27.35;45.15;96678.88;4247652;27;5728;-67
2023/09/12 10:37:17;;;;;;;;;;;;;;;27.36;44.94;96688.59;4244249;27;5103;-67
2023/09/12 10:39:21;;;;;;;;;;;;;;;27.37;44.74;96682.06;4253029;27;5628;-67
2023/09/12 10:41:25;;;;;;;;;;;;;;;27.38;43.61;96681.75;4247675;27;5645;-67
2023/09/12 10:43:33;;;;;;;;;;;;;;;27.35;43.87;96676.16;4243867;27;5823;-67
2023/09/12 10:45:37;;;;;;;;;;;;;;;27.39;43.61;96682.56;4244233;27;5752;-66
2023/09/12 10:47:41;;;;;;;;;;;;;;;27.41;43.09;96692.03;4243192;27;5648;-66
2023/09/12 10:49:46;;;;;;;;;;;;;;;27.43;42.97;96683.59;4244347;27;5816;-66
2023/09/12 10:51:50;;;;;;;;;;;;;;;27.43;42.32;96683.59;4235942;27;5698;-66
2023/09/12 10:53:54;;;;;;;;;;;;;;;27.45;41.69;96678.66;4235654;28;7453;-67
2023/09/12 10:56:01;;;;;;;;;;;;;;;27.45;42.09;96681.38;4236991;27;5642;-67
2023/09/12 10:58:06;;;;;;;;;;;;;;;27.48;41.83;96680.75;4243987;27;5655;-66
2023/09/12 11:00:13;;;;;;;;;;;;;;;27.49;42.07;96676.94;4243580;27;6114;-65
2023/09/12 11:02:31;;;;;;;;;;;;;;;27.48;41.59;96680.75;4243876;27;5691;-66
2023/09/12 11:04:34;;;;;;;;;;;;;;;27.48;41.73;96680.75;4236808;27;5661;-66
2023/09/12 11:06:39;;;;;;;;;;;;;;;27.46;41.70;96680.25;4242578;27;5600;-66
2023/09/12 11:08:42;;;;;;;;;;;;;;;27.49;41.59;96685.06;4252741;27;5706;-66
2023/09/12 11:10:46;;;;;;;;;;;;;;;27.50;41.37;96683.97;4244268;27;5646;-66
2023/09/12 11:12:50;;;;;;;;;;;;;;;27.52;41.49;96684.44;4235481;27;5616;-67
2023/09/12 11:15:05;;;;;;;;;;;;;;;27.52;41.42;96687.16;4242355;27;5573;-67
2023/09/12 11:17:25;;;;;;;;;;;;;;;27.53;41.48;96680.66;4246751;27;6283;-66
2023/09/12 11:19:28;;;;;;;;;;;;;;;27.54;41.06;96680.34;4243249;27;5624;-66
2023/09/12 11:21:35;;;;;;;;;;;;;;;27.56;41.12;96688.19;4246059;27;5758;-67
2023/09/12 11:23:40;;;;;;;;;;;;;;;27.58;41.18;96680.53;4251133;27;5627;-66
2023/09/12 11:25:44;;;;;;;;;;;;;;;27.61;41.00;96679.13;4252633;27;5788;-66
2023/09/12 11:28:04;;;;;;;;;;;;;;;27.62;41.17;96675.28;4243194;27;6823;-66
2023/09/12 11:30:08;;;;;;;;;;;;;;;27.62;41.16;96676.09;4243551;27;5653;-66
2023/09/12 11:32:26;;;;;;;;;;;;;;;27.62;40.94;96676.09;4243551;27;5670;-67
2023/09/12 11:34:37;;;;;;;;;;;;;;;27.63;40.91;96677.69;4242887;27;5645;-67
2023/09/12 11:36:42;;;;;;;;;;;;;;;27.63;40.80;96672.25;4235223;28;5828;-67
2023/09/12 11:38:50;;;;;;;;;;;;;;;27.65;40.64;96672.81;4243158;27;7671;-67
2023/09/12 11:40:54;;;;;;;;;;;;;;;27.67;40.81;96677.94;4252044;27;5644;-67
2023/09/12 11:42:57;;;;;;;;;;;;;;;27.70;40.71;96674.59;4249846;27;5683;-67
2023/09/12 11:45:09;;;;;;;;;;;;;;;27.71;40.77;96668.06;4233860;27;5862;-67
2023/09/12 11:47:13;;;;;;;;;;;;;;;27.73;40.68;96663.91;4237922;27;5604;-67
2023/09/12 11:49:17;;;;;;;;;;;;;;;27.74;40.39;96672.88;4247648;27;5723;-67
2023/09/12 11:51:20;;;;;;;;;;;;;;;27.76;39.85;96666.03;4236907;27;5582;-67
2023/09/12 11:53:25;;;;;;;;;;;;;;;27.78;40.30;96658.38;4227235;27;5615;-67
2023/09/12 11:55:31;;;;;;;;;;;;;;;27.80;40.02;96658.06;4238722;27;5850;-68
2023/09/12 11:57:34;;;;;;;;;;;;;;;27.79;40.19;96660.00;4230486;27;6331;-67
2023/09/12 11:59:39;;;;;;;;;;;;;;;27.80;39.98;96655.38;4230512;27;5745;-67
2023/09/12 12:01:41;;;;;;;;;;;;;;;27.77;39.64;96654.06;4226596;28;5681;-67
2023/09/12 12:03:45;;;;;;;;;;;;;;;27.79;39.84;96648.31;4242348;27;5637;-67
2023/09/12 12:05:49;;;;;;;;;;;;;;;27.80;39.66;96649.94;4231210;27;5649;-67
2023/09/12 12:07:53;;;;;;;;;;;;;;;27.81;39.72;96646.09;4233607;28;5720;-67
2023/09/12 12:10:05;;;;;;;;;;;;;;;27.81;39.54;96643.38;4226748;28;5877;-67
2023/09/12 12:12:15;;;;;;;;;;;;;;;27.82;39.48;96643.06;4230435;28;5776;-67
2023/09/12 12:14:19;;;;;;;;;;;;;;;27.84;39.52;96643.56;4238408;27;5710;-67
2023/09/12 12:16:21;;;;;;;;;;;;;;;27.85;39.33;96642.44;4245104;27;5725;-67
2023/09/12 12:18:27;;;;;;;;;;;;;;;27.87;39.44;96644.09;4233854;27;5746;-67
2023/09/12 12:20:31;;;;;;;;;;;;;;;27.88;39.44;96638.34;4239132;27;5711;-67
2023/09/12 12:22:33;;;;;;;;;;;;;;;27.91;39.23;96635.00;4227772;27;5872;-67
2023/09/12 12:24:40;;;;;;;;;;;;;;;27.92;39.38;96633.09;4224160;27;5096;-67
2023/09/12 12:26:44;;;;;;;;;;;;;;;27.92;39.22;96636.59;4231746;28;5642;-67
2023/09/12 12:28:49;;;;;;;;;;;;;;;27.93;39.06;96626.53;4233676;28;8447;-67
2023/09/12 12:30:55;;;;;;;;;;;;;;;27.93;39.03;96631.97;4251077;27;5628;-75
2023/09/12 12:32:58;;;;;;;;;;;;;;;27.94;39.06;96628.13;4234902;27;5666;-74
2023/09/12 12:35:25;;;;;;;;;;;;;;;27.93;38.76;96624.63;4238932;27;5677;-68
2023/09/12 12:37:50;;;;;;;;;;;;;;;27.95;38.57;96616.16;4237737;27;5707;-68
2023/09/12 12:40:05;;;;;;;;;;;;;;;27.96;38.40;96618.56;4235644;27;5632;-67
2023/09/12 12:42:08;;;;;;;;;;;;;;;27.97;38.38;96616.66;4241520;27;5711;-67
2023/09/12 12:44:13;;;;;;;;;;;;;;;27.97;38.38;96617.44;4216470;27;5799;-68
2023/09/12 12:46:17;;;;;;;;;;;;;;;27.97;38.36;96619.38;4239431;27;5721;-67
2023/09/12 12:48:30;;;;;;;;;;;;;;;27.99;38.03;96619.88;4229165;27;5622;-68
2023/09/12 12:50:37;;;;;;;;;;;;;;;28.01;38.03;96623.09;4248242;27;5718;-68
2023/09/12 12:52:40;;;;;;;;;;;;;;;28.04;37.43;96619.75;4233129;27;5757;-67
2023/09/12 12:54:44;;;;;;;;;;;;;;;28.07;37.23;96605.53;4228531;27;5818;-67
2023/09/12 12:56:47;;;;;;;;;;;;;;;28.08;37.08;96605.22;4236824;27;5648;-67
2023/09/12 12:58:50;;;;;;;;;;;;;;;28.10;37.05;96610.38;4239434;27;5777;-67
2023/09/12 13:00:55;;;;;;;;;;;;;;;28.10;37.23;96602.22;4231797;27;5685;-68
2023/09/12 13:02:58;;;;;;;;;;;;;;;28.11;37.33;96606.53;4239334;27;5813;-67
2023/09/12 13:05:01;;;;;;;;;;;;;;;28.12;37.29;96605.41;4236992;28;5737;-67
2023/09/12 13:07:05;;;;;;;;;;;;;;;28.14;37.02;96601.28;4243353;27;6354;-67
2023/09/12 13:09:09;;;;;;;;;;;;;;;28.15;36.99;96604.78;4242038;27;5660;-66
2023/09/12 13:11:14;;;;;;;;;;;;;;;28.14;37.23;96606.72;4227166;28;5654;-67
2023/09/12 13:13:20;;;;;;;;;;;;;;;28.14;36.95;96604.00;4226327;28;5745;-66
2023/09/12 13:15:23;;;;;;;;;;;;;;;28.15;37.05;96602.06;4233277;27;6354;-67
2023/09/12 13:17:27;;;;;;;;;;;;;;;28.15;37.07;96591.19;4240708;27;5659;-67
2023/09/12 13:19:31;;;;;;;;;;;;;;;28.18;36.94;96593.28;4250829;27;5628;-66
2023/09/12 13:21:33;;;;;;;;;;;;;;;28.20;37.01;96587.53;4246977;27;5624;-66
2023/09/12 13:23:38;;;;;;;;;;;;;;;28.20;37.17;96582.09;4242735;27;5732;-67
2023/09/12 13:25:41;;;;;;;;;;;;;;;28.20;36.92;96580.22;4244755;27;5641;-66
2023/09/12 13:27:44;;;;;;;;;;;;;;;28.19;36.90;96580.50;4244220;27;5795;-66
2023/09/12 13:29:48;;;;;;;;;;;;;;;28.20;37.05;96572.06;4227977;28;5674;-66
2023/09/12 13:31:51;;;;;;;;;;;;;;;28.22;36.90;96571.75;4238602;27;5729;-66
2023/09/12 13:33:55;;;;;;;;;;;;;;;28.23;36.90;96568.72;4236011;27;5787;-66
2023/09/12 13:35:59;;;;;;;;;;;;;;;28.23;36.99;96570.63;4243246;27;5649;-66
2023/09/12 13:38:03;;;;;;;;;;;;;;;28.24;36.98;96575.75;4245220;27;5628;-67
2023/09/12 13:40:08;;;;;;;;;;;;;;;28.23;36.89;96586.94;4247848;27;5723;-66
2023/09/12 13:42:11;;;;;;;;;;;;;;;28.24;36.83;96589.34;4241531;27;5615;-67
2023/09/12 13:44:14;;;;;;;;;;;;;;;28.22;36.96;96575.28;4248743;27;5616;-68
2023/09/12 13:46:17;;;;;;;;;;;;;;;28.23;36.90;96573.34;4244139;27;5835;-66
2023/09/12 13:48:20;;;;;;;;;;;;;;;28.23;36.88;96576.88;4234932;27;5649;-67
2023/09/12 13:50:24;;;;;;;;;;;;;;;28.26;37.00;96570.81;4235404;28;5641;-66
2023/09/12 13:52:28;;;;;;;;;;;;;;;28.28;37.04;96581.38;4244738;27;5824;-66
2023/09/12 13:54:31;;;;;;;;;;;;;;;28.28;36.90;96570.50;4222924;27;5766;-66
2023/09/12 13:56:35;;;;;;;;;;;;;;;28.30;37.20;96571.81;4229757;27;5639;-66
2023/09/12 13:58:37;;;;;;;;;;;;;;;28.31;36.68;96567.16;4241840;27;5730;-66
2023/09/12 14:00:46;;;;;;;;;;;;;;;28.31;37.05;96570.69;4229044;27;5757;-66
2023/09/12 14:02:49;;;;;;;;;;;;;;;28.33;37.11;96568.47;4239691;27;5782;-67
2023/09/12 14:04:52;;;;;;;;;;;;;;;28.36;37.27;96570.56;4235253;27;5776;-66
2023/09/12 14:07:14;;;;;;;;;;;;;;;28.39;37.28;96559.06;4245698;27;5761;-66
2023/09/12 14:09:18;;;;;;;;;;;;;;;28.42;37.36;96560.34;4235197;27;5627;-66
2023/09/12 14:11:28;;;;;;;;;;;;;;;28.42;37.18;96553.00;4243375;27;5608;-68
2023/09/12 14:13:37;;;;;;;;;;;;;;;28.40;37.30;96549.78;4235878;27;5884;-67
2023/09/12 14:15:40;;;;;;;;;;;;;;;28.39;36.90;96542.75;4233146;28;6505;-66
2023/09/12 14:17:43;;;;;;;;;;;;;;;28.40;36.82;96544.34;4228613;27;5667;-66
2023/09/12 14:19:57;;;;;;;;;;;;;;;28.45;36.57;96534.47;4231901;27;6356;-67
2023/09/12 14:22:00;;;;;;;;;;;;;;;28.46;36.54;96536.88;4228817;27;6320;-66
2023/09/12 14:24:06;;;;;;;;;;;;;;;28.47;36.15;96530.31;4241485;27;5651;-67
2023/09/12 14:26:10;;;;;;;;;;;;;;;28.51;36.27;96528.56;4233174;27;5758;-66
2023/09/12 14:28:13;;;;;;;;;;;;;;;28.54;36.18;96527.94;4237558;27;5715;-66
2023/09/12 14:30:18;;;;;;;;;;;;;;;28.56;36.21;96525.72;4237192;27;5092;-67
2023/09/12 14:32:21;;;;;;;;;;;;;;;28.56;35.92;96533.06;4230033;28;6188;-67
2023/09/12 14:34:26;;;;;;;;;;;;;;;28.59;35.98;96535.16;4223888;28;5657;-67
2023/09/12 14:36:30;;;;;;;;;;;;;;;28.62;35.53;96529.06;4240188;27;5833;-67
2023/09/12 14:38:33;;;;;;;;;;;;;;;28.63;35.70;96533.41;4240872;27;5809;-67
2023/09/12 14:40:39;;;;;;;;;;;;;;;28.64;35.40;96527.63;4235561;27;5760;-67
2023/09/12 14:42:46;;;;;;;;;;;;;;;28.65;35.51;96523.81;4227121;28;5682;-67
2023/09/12 14:44:50;;;;;;;;;;;;;;;28.65;35.65;96523.81;4227532;28;5836;-67
2023/09/12 14:46:52;;;;;;;;;;;;;;;28.65;35.68;96528.44;4234053;28;5839;-67
2023/09/12 14:48:56;;;;;;;;;;;;;;;28.63;35.66;96531.47;4227866;28;5783;-68
2023/09/12 14:51:05;;;;;;;;;;;;;;;28.64;35.62;96526.84;4227469;28;5757;-67
2023/09/12 14:53:08;;;;;;;;;;;;;;;28.65;35.25;96523.00;4228142;27;5722;-67
2023/09/12 14:55:11;;;;;;;;;;;;;;;28.66;35.28;96513.75;4240099;27;5611;-68
2023/09/12 14:57:16;;;;;;;;;;;;;;;28.67;35.26;96518.06;4227097;27;5688;-67
2023/09/12 14:59:20;;;;;;;;;;;;;;;28.67;35.45;96526.22;4233668;27;5653;-67
2023/09/12 15:01:24;;;;;;;;;;;;;;;28.66;35.38;96514.53;4226465;28;5769;-67
2023/09/12 15:03:28;;;;;;;;;;;;;;;28.70;35.32;96520.16;4225194;28;5108;-68
2023/09/12 15:05:31;;;;;;;;;;;;;;;28.68;35.25;96503.34;4225246;28;5657;-67
2023/09/12 15:07:36;;;;;;;;;;;;;;;28.68;35.34;96515.03;4228097;27;5153;-67
2023/09/12 15:09:39;;;;;;;;;;;;;;;28.68;35.29;96512.31;4227084;28;5749;-67
2023/09/12 15:11:42;;;;;;;;;;;;;;;28.70;34.88;96517.44;4235345;27;5880;-69
2023/09/12 15:13:47;;;;;;;;;;;;;;;28.69;35.38;96519.34;4230483;27;5750;-67
2023/09/12 15:15:50;;;;;;;;;;;;;;;28.71;35.39;96535.34;4227290;28;5717;-67
2023/09/12 15:17:53;;;;;;;;;;;;;;;28.73;35.50;96522.22;4231025;27;5654;-67
2023/09/12 15:19:57;;;;;;;;;;;;;;;28.72;35.67;96526.06;4230514;27;5804;-67
2023/09/12 15:22:00;;;;;;;;;;;;;;;28.74;35.78;96521.09;4230500;28;5732;-67
2023/09/12 15:24:04;;;;;;;;;;;;;;;28.74;35.78;96525.75;4236369;27;5740;-65
2023/09/12 15:26:06;;;;;;;;;;;;;;;28.73;35.92;96521.44;4235109;27;6590;-66
2023/09/12 15:28:09;;;;;;;;;;;;;;;28.72;36.01;96517.91;4236559;27;5860;-66
2023/09/12 15:30:14;;;;;;;;;;;;;;;28.74;36.42;96520.31;4229451;27;5694;-67
2023/09/12 15:32:17;;;;;;;;;;;;;;;28.73;36.58;96524.16;4226347;27;5843;-66
2023/09/12 15:34:21;;;;;;;;;;;;;;;28.71;36.52;96522.53;4234549;27;5695;-66
2023/09/12 15:36:24;;;;;;;;;;;;;;;28.71;36.67;96522.53;4233389;27;5750;-67
2023/09/12 15:38:28;;;;;;;;;;;;;;;28.70;36.73;96526.38;4227012;28;5124;-66
2023/09/12 15:40:32;;;;;;;;;;;;;;;28.69;36.83;96527.50;4234138;27;5752;-66
2023/09/12 15:42:36;;;;;;;;;;;;;;;28.68;37.01;96527.81;4230680;28;5672;-66
2023/09/12 15:44:40;;;;;;;;;;;;;;;28.71;37.12;96533.44;4218917;27;5667;-66